createdAt,value
2018-07-04T00:00:01.237Z,1002.18
2018-07-04T00:00:41.778Z,1002.18
2018-07-04T00:01:22.281Z,1002.21
2018-07-04T00:02:02.738Z,1002.18
2018-07-04T00:02:46.055Z,1002.16
2018-07-04T00:03:26.577Z,1002.2
2018-07-04T00:04:08.839Z,1002.15
2018-07-04T00:04:49.362Z,1002.14
2018-07-04T00:05:29.842Z,1002.17
2018-07-04T00:06:10.320Z,1002.14
2018-07-04T00:06:50.827Z,1002.1
2018-07-04T00:07:32.217Z,1002.09
2018-07-04T00:08:12.749Z,1002.07
2018-07-04T00:08:53.266Z,1002.11
2018-07-04T00:09:33.835Z,1002.12
2018-07-04T00:10:14.286Z,1002.19
2018-07-04T00:10:54.763Z,1002.16
2018-07-04T00:11:35.264Z,1002.11
2018-07-04T00:12:15.730Z,1002.18
2018-07-04T00:12:56.264Z,1002.14
2018-07-04T00:13:36.804Z,1002.15
2018-07-04T00:14:17.326Z,1002.12
2018-07-04T00:14:57.816Z,1002.13
2018-07-04T00:15:38.310Z,1002.15
2018-07-04T00:16:18.872Z,1002.16
2018-07-04T00:16:59.405Z,1002.13
2018-07-04T00:17:39.853Z,1002.16
2018-07-04T00:18:20.362Z,1002.16
2018-07-04T00:19:00.881Z,1002.11
2018-07-04T00:19:41.410Z,1002.12
2018-07-04T00:20:21.911Z,1002.12
2018-07-04T00:21:02.400Z,1002.15
2018-07-04T00:21:42.879Z,1002.11
2018-07-04T00:22:23.480Z,1002.13
2018-07-04T00:23:03.969Z,1002.15
2018-07-04T00:23:45.240Z,1002.13
2018-07-04T00:24:25.743Z,1002.13
2018-07-04T00:25:06.260Z,1002.15
2018-07-04T00:25:46.793Z,1002.13
2018-07-04T00:26:27.228Z,1002.13
2018-07-04T00:27:07.734Z,1002.12
2018-07-04T00:27:48.934Z,1002.11
2018-07-04T00:28:29.347Z,1002.15
2018-07-04T00:29:09.834Z,1002.16
2018-07-04T00:29:50.974Z,1002.16
2018-07-04T00:30:31.467Z,1002.16
2018-07-04T00:31:12.770Z,1002.18
2018-07-04T00:31:53.213Z,1002.21
2018-07-04T00:32:33.719Z,1002.23
2018-07-04T00:33:14.980Z,1002.17
2018-07-04T00:33:55.473Z,1002.19
2018-07-04T00:34:35.976Z,1002.19
2018-07-04T00:35:16.475Z,1002.16
2018-07-04T00:35:56.984Z,1002.19
2018-07-04T00:36:38.360Z,1002.15
2018-07-04T00:37:18.852Z,1002.09
2018-07-04T00:37:59.343Z,1002.15
2018-07-04T00:38:39.851Z,1002.17
2018-07-04T00:39:20.334Z,1002.18
2018-07-04T00:40:00.861Z,1002.2
2018-07-04T00:40:41.349Z,1002.17
2018-07-04T00:41:21.845Z,1002.14
2018-07-04T00:42:02.308Z,1002.16
2018-07-04T00:42:42.794Z,1002.15
2018-07-04T00:43:23.299Z,1002.15
2018-07-04T00:44:03.819Z,1002.15
2018-07-04T00:44:44.322Z,1002.12
2018-07-04T00:45:27.323Z,1002.14
2018-07-04T00:46:07.848Z,1002.14
2018-07-04T00:46:48.359Z,1002.13
2018-07-04T00:47:28.851Z,1002.13
2018-07-04T00:48:09.350Z,1002.13
2018-07-04T00:48:49.853Z,1002.12
2018-07-04T00:49:30.340Z,1002.14
2018-07-04T00:50:10.884Z,1002.15
2018-07-04T00:50:51.422Z,1002.13
2018-07-04T00:51:33.459Z,1002.17
2018-07-04T00:52:14.737Z,1002.14
2018-07-04T00:52:55.217Z,1002.15
2018-07-04T00:53:36.661Z,1002.14
2018-07-04T00:54:16.209Z,1002.11
2018-07-04T00:54:56.742Z,1002.13
2018-07-04T00:55:38.090Z,1002.12
2018-07-04T00:56:18.574Z,1002.16
2018-07-04T00:56:59.871Z,1002.12
2018-07-04T00:57:40.443Z,1002.13
2018-07-04T00:58:20.890Z,1002.15
2018-07-04T00:59:01.382Z,1002.14
2018-07-04T00:59:41.878Z,1002.18
2018-07-04T01:00:22.382Z,1002.18
2018-07-04T01:01:02.860Z,1002.13
2018-07-04T01:01:43.988Z,1002.17
2018-07-04T01:02:24.475Z,1002.13
2018-07-04T01:03:04.978Z,1002.16
2018-07-04T01:03:45.459Z,1002.22
2018-07-04T01:04:25.918Z,1002.17
2018-07-04T01:05:06.462Z,1002.15
2018-07-04T01:05:46.963Z,1002.16
2018-07-04T01:06:27.423Z,1002.17
2018-07-04T01:07:07.893Z,1002.18
2018-07-04T01:07:48.466Z,1002.16
2018-07-04T01:08:28.945Z,1002.1
2018-07-04T01:09:09.408Z,1002.13
2018-07-04T01:09:49.985Z,1002.12
2018-07-04T01:10:30.475Z,1002.12
2018-07-04T01:11:10.995Z,1002.12
2018-07-04T01:11:51.483Z,1002.14
2018-07-04T01:12:32.019Z,1002.09
2018-07-04T01:13:12.481Z,1002.11
2018-07-04T01:13:53.041Z,1002.11
2018-07-04T01:14:33.485Z,1002.1
2018-07-04T01:15:13.992Z,1002.13
2018-07-04T01:15:55.377Z,1002.07
2018-07-04T01:16:35.922Z,1002.11
2018-07-04T01:17:16.376Z,1002.1
2018-07-04T01:17:56.991Z,1002.06
2018-07-04T01:18:37.480Z,1002.1
2018-07-04T01:19:17.958Z,1002.08
2018-07-04T01:19:59.084Z,1002.09
2018-07-04T01:20:39.595Z,1002.1
2018-07-04T01:21:20.047Z,1002.08
2018-07-04T01:22:00.612Z,1002.11
2018-07-04T01:22:41.782Z,1002.11
2018-07-04T01:23:22.233Z,1002.1
2018-07-04T01:24:02.753Z,1002.12
2018-07-04T01:24:43.882Z,1002.1
2018-07-04T01:25:24.369Z,1002.15
2018-07-04T01:26:04.880Z,1002.14
2018-07-04T01:26:45.370Z,1002.15
2018-07-04T01:27:25.882Z,1002.16
2018-07-04T01:28:06.355Z,1002.15
2018-07-04T01:28:46.897Z,1002.12
2018-07-04T01:29:27.899Z,1002.13
2018-07-04T01:30:08.462Z,1002.12
2018-07-04T01:30:49.880Z,1002.13
2018-07-04T01:31:30.413Z,1002.1
2018-07-04T01:32:10.867Z,1002.13
2018-07-04T01:32:52.012Z,1002.13
2018-07-04T01:33:32.484Z,1002.12
2018-07-04T01:34:12.967Z,1002.09
2018-07-04T01:34:53.442Z,1002.09
2018-07-04T01:35:33.937Z,1002.09
2018-07-04T01:36:14.459Z,1002.08
2018-07-04T01:36:54.948Z,1002.09
2018-07-04T01:37:35.408Z,1002.08
2018-07-04T01:38:15.954Z,1002.05
2018-07-04T01:38:56.450Z,1002.08
2018-07-04T01:39:36.949Z,1002.06
2018-07-04T01:40:17.992Z,1002.01
2018-07-04T01:40:58.496Z,1002.05
2018-07-04T01:41:39.005Z,1002.03
2018-07-04T01:42:19.512Z,1002.03
2018-07-04T01:43:00.499Z,1001.98
2018-07-04T01:43:41.660Z,1001.99
2018-07-04T01:44:22.424Z,1002.03
2018-07-04T01:45:02.906Z,1002.02
2018-07-04T01:45:44.077Z,1002
2018-07-04T01:46:24.613Z,1001.99
2018-07-04T01:47:06.978Z,1001.99
2018-07-04T01:47:47.470Z,1001.99
2018-07-04T01:48:28.749Z,1002
2018-07-04T01:49:09.256Z,1002.01
2018-07-04T01:49:50.526Z,1002.05
2018-07-04T01:50:31.006Z,1002.05
2018-07-04T01:51:11.490Z,1002.02
2018-07-04T01:51:52.665Z,1002.04
2018-07-04T01:52:33.163Z,1002.02
2018-07-04T01:53:13.669Z,1002.03
2018-07-04T01:53:54.224Z,1002.03
2018-07-04T01:54:34.699Z,1002.02
2018-07-04T01:55:15.205Z,1002
2018-07-04T01:55:55.681Z,1002
2018-07-04T01:56:36.205Z,1002.06
2018-07-04T01:57:16.663Z,1002
2018-07-04T01:57:57.184Z,1002.01
2018-07-04T01:58:37.638Z,1001.99
2018-07-04T01:59:18.131Z,1001.96
2018-07-04T01:59:58.661Z,1001.99
2018-07-04T02:00:39.173Z,1001.97
2018-07-04T02:01:20.158Z,1001.95
2018-07-04T02:02:00.697Z,1001.95
2018-07-04T02:02:41.164Z,1001.94
2018-07-04T02:03:21.709Z,1001.96
2018-07-04T02:04:02.184Z,1001.96
2018-07-04T02:04:42.676Z,1001.93
2018-07-04T02:05:23.154Z,1001.96
2018-07-04T02:06:03.652Z,1001.96
2018-07-04T02:06:45.111Z,1001.96
2018-07-04T02:07:25.608Z,1001.99
2018-07-04T02:08:07.622Z,1001.98
2018-07-04T02:08:48.117Z,1001.99
2018-07-04T02:09:29.782Z,1001.99
2018-07-04T02:10:11.291Z,1001.99
2018-07-04T02:10:51.836Z,1002
2018-07-04T02:11:32.307Z,1001.95
2018-07-04T02:12:12.807Z,1002.01
2018-07-04T02:12:53.304Z,1002
2018-07-04T02:13:34.783Z,1001.97
2018-07-04T02:14:15.304Z,1001.98
2018-07-04T02:14:55.796Z,1002.01
2018-07-04T02:15:36.267Z,1002.02
2018-07-04T02:16:16.767Z,1002
2018-07-04T02:16:57.265Z,1001.99
2018-07-04T02:17:39.602Z,1001.99
2018-07-04T02:18:20.113Z,1001.95
2018-07-04T02:19:00.620Z,1001.98
2018-07-04T02:19:41.080Z,1001.96
2018-07-04T02:20:21.573Z,1001.95
2018-07-04T02:21:02.082Z,1001.93
2018-07-04T02:21:43.503Z,1001.9
2018-07-04T02:22:24.026Z,1001.9
2018-07-04T02:23:04.556Z,1001.9
2018-07-04T02:23:45.029Z,1001.94
2018-07-04T02:24:25.502Z,1001.94
2018-07-04T02:25:06.059Z,1001.95
2018-07-04T02:25:46.541Z,1001.91
2018-07-04T02:26:27.022Z,1001.93
2018-07-04T02:27:07.566Z,1001.95
2018-07-04T02:27:48.032Z,1001.96
2018-07-04T02:28:28.490Z,1001.9
2018-07-04T02:29:08.988Z,1001.93
2018-07-04T02:29:50.133Z,1001.95
2018-07-04T02:30:30.633Z,1001.96
2018-07-04T02:31:11.054Z,1001.94
2018-07-04T02:31:51.589Z,1001.91
2018-07-04T02:32:33.045Z,1001.99
2018-07-04T02:33:14.229Z,1002
2018-07-04T02:33:54.697Z,1001.94
2018-07-04T02:34:35.193Z,1001.94
2018-07-04T02:35:15.699Z,1001.93
2018-07-04T02:35:56.163Z,1002.01
2018-07-04T02:36:36.662Z,1001.95
2018-07-04T02:37:17.164Z,1001.95
2018-07-04T02:37:57.623Z,1001.94
2018-07-04T02:38:38.921Z,1001.99
2018-07-04T02:39:19.443Z,1002.02
2018-07-04T02:39:59.879Z,1002.02
2018-07-04T02:40:40.394Z,1001.99
2018-07-04T02:41:20.928Z,1001.99
2018-07-04T02:42:01.499Z,1002.03
2018-07-04T02:42:42.953Z,1001.99
2018-07-04T02:43:23.440Z,1002.01
2018-07-04T02:44:04.445Z,1002.01
2018-07-04T02:44:44.932Z,1002.04
2018-07-04T02:45:25.457Z,1002.03
2018-07-04T02:46:06.732Z,1002.07
2018-07-04T02:46:47.185Z,1001.99
2018-07-04T02:47:27.702Z,1002.04
2018-07-04T02:48:08.177Z,1002.02
2018-07-04T02:48:48.644Z,1002.01
2018-07-04T02:49:29.741Z,1002.04
2018-07-04T02:50:10.218Z,1001.97
2018-07-04T02:50:50.701Z,1002.03
2018-07-04T02:51:31.846Z,1002
2018-07-04T02:52:12.311Z,1002.01
2018-07-04T02:52:52.794Z,1002.04
2018-07-04T02:53:33.303Z,1002.01
2018-07-04T02:54:14.714Z,1002.01
2018-07-04T02:54:55.206Z,1002.07
2018-07-04T02:55:35.690Z,1002.01
2018-07-04T02:56:16.937Z,1002.05
2018-07-04T02:56:57.429Z,1002.03
2018-07-04T02:57:37.937Z,1002.04
2018-07-04T02:58:18.421Z,1002.05
2018-07-04T02:58:58.916Z,1002.05
2018-07-04T02:59:39.410Z,1002.04
2018-07-04T03:00:19.946Z,1002.06
2018-07-04T03:01:00.431Z,1002.05
2018-07-04T03:01:41.649Z,1002.06
2018-07-04T03:02:23.130Z,1002.03
2018-07-04T03:03:04.527Z,1002.06
2018-07-04T03:03:45.056Z,1002.05
2018-07-04T03:04:25.570Z,1002
2018-07-04T03:05:06.962Z,1002.02
2018-07-04T03:05:47.463Z,1002.03
2018-07-04T03:06:27.922Z,1002.02
2018-07-04T03:07:08.489Z,1002.01
2018-07-04T03:07:48.955Z,1002
2018-07-04T03:08:29.478Z,1002.01
2018-07-04T03:09:09.946Z,1002
2018-07-04T03:09:50.440Z,1002
2018-07-04T03:10:31.972Z,1001.99
2018-07-04T03:11:12.456Z,1002
2018-07-04T03:11:52.930Z,1001.99
2018-07-04T03:12:33.442Z,1001.99
2018-07-04T03:13:13.926Z,1001.99
2018-07-04T03:13:54.410Z,1002.01
2018-07-04T03:14:34.927Z,1001.95
2018-07-04T03:15:15.399Z,1002.01
2018-07-04T03:15:55.915Z,1001.97
2018-07-04T03:16:36.453Z,1001.94
2018-07-04T03:17:16.952Z,1001.92
2018-07-04T03:17:57.570Z,1001.91
2018-07-04T03:18:38.018Z,1001.9
2018-07-04T03:19:18.511Z,1001.91
2018-07-04T03:19:59.020Z,1001.95
2018-07-04T03:20:39.571Z,1001.96
2018-07-04T03:21:20.007Z,1001.96
2018-07-04T03:22:01.307Z,1001.95
2018-07-04T03:22:41.832Z,1001.97
2018-07-04T03:23:22.305Z,1001.98
2018-07-04T03:24:02.808Z,1001.96
2018-07-04T03:24:43.323Z,1001.96
2018-07-04T03:25:23.818Z,1001.96
2018-07-04T03:26:04.357Z,1001.97
2018-07-04T03:26:44.823Z,1001.98
2018-07-04T03:27:25.829Z,1001.98
2018-07-04T03:28:06.302Z,1001.94
2018-07-04T03:28:46.793Z,1001.94
2018-07-04T03:29:27.336Z,1001.94
2018-07-04T03:30:07.817Z,1001.96
2018-07-04T03:30:48.278Z,1001.92
2018-07-04T03:31:28.770Z,1001.96
2018-07-04T03:32:09.271Z,1001.95
2018-07-04T03:32:50.233Z,1001.96
2018-07-04T03:33:30.718Z,1001.92
2018-07-04T03:34:11.196Z,1001.97
2018-07-04T03:34:51.681Z,1001.99
2018-07-04T03:35:32.197Z,1001.97
2018-07-04T03:36:12.632Z,1001.97
2018-07-04T03:36:53.787Z,1001.95
2018-07-04T03:37:34.313Z,1001.97
2018-07-04T03:38:14.752Z,1001.94
2018-07-04T03:38:55.267Z,1002
2018-07-04T03:39:36.589Z,1002.01
2018-07-04T03:40:17.103Z,1001.99
2018-07-04T03:40:57.601Z,1001.99
2018-07-04T03:41:39.076Z,1002.03
2018-07-04T03:42:19.531Z,1002
2018-07-04T03:43:00.031Z,1002
2018-07-04T03:43:40.526Z,1002
2018-07-04T03:44:21.078Z,1002.02
2018-07-04T03:45:01.486Z,1002.08
2018-07-04T03:45:42.572Z,1002.07
2018-07-04T03:46:23.036Z,1002.05
2018-07-04T03:47:03.526Z,1002.1
2018-07-04T03:47:44.023Z,1002.09
2018-07-04T03:48:25.458Z,1002.12
2018-07-04T03:49:06.003Z,1002.16
2018-07-04T03:49:46.586Z,1002.13
2018-07-04T03:50:27.036Z,1002.09
2018-07-04T03:51:08.472Z,1002.19
2018-07-04T03:51:49.145Z,1002.19
2018-07-04T03:52:29.608Z,1002.13
2018-07-04T03:53:10.307Z,1002.15
2018-07-04T03:53:50.665Z,1002.16
2018-07-04T03:54:31.124Z,1002.11
2018-07-04T03:55:11.611Z,1002.15
2018-07-04T03:55:53.559Z,1002.2
2018-07-04T03:56:33.991Z,1002.13
2018-07-04T03:57:15.152Z,1002.14
2018-07-04T03:57:55.666Z,1002.14
2018-07-04T03:58:36.197Z,1002.17
2018-07-04T03:59:16.792Z,1002.13
2018-07-04T03:59:57.276Z,1002.14
2018-07-04T04:00:37.816Z,1002.22
2018-07-04T04:01:18.324Z,1002.18
2018-07-04T04:01:59.448Z,1002.14
2018-07-04T04:02:39.968Z,1002.2
2018-07-04T04:03:20.448Z,1002.2
2018-07-04T04:04:00.943Z,1002.18
2018-07-04T04:04:41.416Z,1002.19
2018-07-04T04:05:21.923Z,1002.21
2018-07-04T04:06:02.458Z,1002.22
2018-07-04T04:06:42.903Z,1002.18
2018-07-04T04:07:23.437Z,1002.22
2018-07-04T04:08:03.930Z,1002.22
2018-07-04T04:08:44.481Z,1002.23
2018-07-04T04:09:26.568Z,1002.24
2018-07-04T04:10:07.101Z,1002.22
2018-07-04T04:10:48.258Z,1002.24
2018-07-04T04:11:31.501Z,1002.29
2018-07-04T04:12:12.110Z,1002.27
2018-07-04T04:12:52.636Z,1002.25
2018-07-04T04:13:33.159Z,1002.26
2018-07-04T04:14:13.646Z,1002.24
2018-07-04T04:14:54.677Z,1002.2
2018-07-04T04:15:35.173Z,1002.26
2018-07-04T04:16:15.650Z,1002.2
2018-07-04T04:16:56.178Z,1002.21
2018-07-04T04:17:36.694Z,1002.2
2018-07-04T04:18:17.147Z,1002.2
2018-07-04T04:18:57.607Z,1002.21
2018-07-04T04:19:38.651Z,1002.24
2018-07-04T04:20:20.699Z,1002.2
2018-07-04T04:21:01.183Z,1002.2
2018-07-04T04:21:41.741Z,1002.22
2018-07-04T04:22:22.751Z,1002.19
2018-07-04T04:23:03.312Z,1002.25
2018-07-04T04:23:43.879Z,1002.21
2018-07-04T04:24:25.252Z,1002.22
2018-07-04T04:25:05.766Z,1002.21
2018-07-04T04:25:46.215Z,1002.23
2018-07-04T04:26:26.747Z,1002.24
2018-07-04T04:27:07.275Z,1002.2
2018-07-04T04:27:47.705Z,1002.24
2018-07-04T04:28:28.182Z,1002.22
2018-07-04T04:29:08.744Z,1002.21
2018-07-04T04:29:49.228Z,1002.19
2018-07-04T04:30:29.734Z,1002.2
2018-07-04T04:31:10.248Z,1002.17
2018-07-04T04:31:51.513Z,1002.19
2018-07-04T04:32:31.987Z,1002.19
2018-07-04T04:33:12.452Z,1002.18
2018-07-04T04:33:52.940Z,1002.13
2018-07-04T04:34:33.475Z,1002.16
2018-07-04T04:35:13.982Z,1002.2
2018-07-04T04:35:54.443Z,1002.12
2018-07-04T04:36:34.935Z,1002.15
2018-07-04T04:37:16.374Z,1002.21
2018-07-04T04:37:56.832Z,1002.18
2018-07-04T04:38:37.375Z,1002.17
2018-07-04T04:39:17.855Z,1002.16
2018-07-04T04:39:58.441Z,1002.17
2018-07-04T04:40:39.009Z,1002.18
2018-07-04T04:41:19.450Z,1002.2
2018-07-04T04:41:59.947Z,1002.19
2018-07-04T04:42:40.446Z,1002.19
2018-07-04T04:43:21.748Z,1002.21
2018-07-04T04:44:02.263Z,1002.21
2018-07-04T04:44:44.615Z,1002.19
2018-07-04T04:45:25.113Z,1002.23
2018-07-04T04:46:05.580Z,1002.24
2018-07-04T04:46:46.085Z,1002.26
2018-07-04T04:47:26.585Z,1002.23
2018-07-04T04:48:07.035Z,1002.21
2018-07-04T04:48:47.577Z,1002.26
2018-07-04T04:49:28.085Z,1002.23
2018-07-04T04:50:08.545Z,1002.23
2018-07-04T04:50:49.085Z,1002.19
2018-07-04T04:51:29.599Z,1002.22
2018-07-04T04:52:10.689Z,1002.23
2018-07-04T04:52:51.179Z,1002.21
2018-07-04T04:53:32.274Z,1002.2
2018-07-04T04:54:12.800Z,1002.17
2018-07-04T04:54:53.405Z,1002.15
2018-07-04T04:55:33.723Z,1002.18
2018-07-04T04:56:14.266Z,1002.2
2018-07-04T04:56:54.737Z,1002.2
2018-07-04T04:57:35.259Z,1002.17
2018-07-04T04:58:15.813Z,1002.21
2018-07-04T04:58:56.295Z,1002.2
2018-07-04T04:59:36.783Z,1002.2
2018-07-04T05:00:17.296Z,1002.18
2018-07-04T05:00:57.775Z,1002.21
2018-07-04T05:01:38.308Z,1002.23
2018-07-04T05:02:18.820Z,1002.2
2018-07-04T05:02:59.285Z,1002.21
2018-07-04T05:03:39.796Z,1002.22
2018-07-04T05:04:20.337Z,1002.2
2018-07-04T05:05:01.529Z,1002.23
2018-07-04T05:05:41.987Z,1002.17
2018-07-04T05:06:22.562Z,1002.26
2018-07-04T05:07:03.067Z,1002.19
2018-07-04T05:07:43.586Z,1002.22
2018-07-04T05:08:24.951Z,1002.26
2018-07-04T05:09:06.023Z,1002.25
2018-07-04T05:09:46.488Z,1002.26
2018-07-04T05:10:27.022Z,1002.24
2018-07-04T05:11:07.544Z,1002.23
2018-07-04T05:11:48.035Z,1002.23
2018-07-04T05:12:28.544Z,1002.27
2018-07-04T05:13:09.025Z,1002.27
2018-07-04T05:13:49.575Z,1002.23
2018-07-04T05:14:30.011Z,1002.23
2018-07-04T05:15:10.543Z,1002.27
2018-07-04T05:15:51.022Z,1002.26
2018-07-04T05:16:31.518Z,1002.3
2018-07-04T05:17:11.998Z,1002.24
2018-07-04T05:17:52.487Z,1002.25
2018-07-04T05:18:32.983Z,1002.26
2018-07-04T05:19:13.495Z,1002.26
2018-07-04T05:19:54.208Z,1002.27
2018-07-04T05:20:34.644Z,1002.26
2018-07-04T05:21:15.138Z,1002.22
2018-07-04T05:21:55.637Z,1002.2
2018-07-04T05:22:36.272Z,1002.25
2018-07-04T05:23:16.648Z,1002.24
2018-07-04T05:23:57.149Z,1002.2
2018-07-04T05:24:38.612Z,1002.23
2018-07-04T05:25:19.624Z,1002.26
2018-07-04T05:26:00.217Z,1002.22
2018-07-04T05:27:58.475Z,1002.25
2018-07-04T05:28:38.978Z,1002.26
2018-07-04T05:29:19.512Z,1002.23
2018-07-04T05:30:00.047Z,1002.23
2018-07-04T05:30:40.541Z,1002.25
2018-07-04T05:31:21.903Z,1002.25
2018-07-04T05:32:02.396Z,1002.24
2018-07-04T05:32:42.875Z,1002.23
2018-07-04T05:33:23.593Z,1002.2
2018-07-04T05:34:04.682Z,1002.23
2018-07-04T05:34:45.199Z,1002.24
2018-07-04T05:35:25.698Z,1002.22
2018-07-04T05:36:06.204Z,1002.23
2018-07-04T05:36:46.866Z,1002.24
2018-07-04T05:37:27.218Z,1002.25
2018-07-04T05:38:07.730Z,1002.26
2018-07-04T05:38:48.235Z,1002.24
2018-07-04T05:39:28.716Z,1002.22
2018-07-04T05:40:09.230Z,1002.19
2018-07-04T05:40:51.716Z,1002.22
2018-07-04T05:41:32.175Z,1002.22
2018-07-04T05:42:12.702Z,1002.22
2018-07-04T05:42:53.304Z,1002.22
2018-07-04T05:43:34.039Z,1002.26
2018-07-04T05:44:14.489Z,1002.25
2018-07-04T05:44:54.973Z,1002.25
2018-07-04T05:45:36.365Z,1002.23
2018-07-04T05:46:16.878Z,1002.28
2018-07-04T05:46:57.461Z,1002.23
2018-07-04T05:47:38.716Z,1002.28
2018-07-04T05:48:19.220Z,1002.24
2018-07-04T05:49:00.381Z,1002.26
2018-07-04T05:49:40.893Z,1002.24
2018-07-04T05:50:21.391Z,1002.27
2018-07-04T05:51:02.629Z,1002.27
2018-07-04T05:51:43.134Z,1002.26
2018-07-04T05:52:23.684Z,1002.3
2018-07-04T05:53:04.125Z,1002.32
2018-07-04T05:53:44.648Z,1002.28
2018-07-04T05:54:25.159Z,1002.33
2018-07-04T05:55:05.624Z,1002.29
2018-07-04T05:55:46.144Z,1002.3
2018-07-04T05:56:27.463Z,1002.29
2018-07-04T05:57:07.952Z,1002.34
2018-07-04T05:57:48.457Z,1002.34
2018-07-04T05:58:28.980Z,1002.33
2018-07-04T05:59:09.470Z,1002.35
2018-07-04T05:59:50.029Z,1002.37
2018-07-04T06:00:31.308Z,1002.4
2018-07-04T06:01:11.809Z,1002.4
2018-07-04T06:01:52.315Z,1002.42
2018-07-04T06:02:32.832Z,1002.4
2018-07-04T06:03:13.256Z,1002.42
2018-07-04T06:03:53.780Z,1002.41
2018-07-04T06:04:34.297Z,1002.38
2018-07-04T06:05:14.787Z,1002.4
2018-07-04T06:05:55.276Z,1002.4
2018-07-04T06:06:35.757Z,1002.42
2018-07-04T06:07:16.300Z,1002.46
2018-07-04T06:07:56.755Z,1002.44
2018-07-04T06:08:37.260Z,1002.43
2018-07-04T06:09:17.781Z,1002.46
2018-07-04T06:09:58.328Z,1002.47
2018-07-04T06:10:38.832Z,1002.51
2018-07-04T06:11:19.341Z,1002.5
2018-07-04T06:12:00.466Z,1002.5
2018-07-04T06:12:40.975Z,1002.49
2018-07-04T06:13:22.397Z,1002.49
2018-07-04T06:14:02.932Z,1002.47
2018-07-04T06:14:43.955Z,1002.51
2018-07-04T06:15:24.462Z,1002.51
2018-07-04T06:16:05.618Z,1002.52
2018-07-04T06:16:46.198Z,1002.49
2018-07-04T06:17:27.207Z,1002.5
2018-07-04T06:18:07.781Z,1002.53
2018-07-04T06:18:48.259Z,1002.51
2018-07-04T06:19:28.774Z,1002.51
2018-07-04T06:20:09.296Z,1002.53
2018-07-04T06:20:49.861Z,1002.5
2018-07-04T06:21:30.294Z,1002.55
2018-07-04T06:22:10.812Z,1002.59
2018-07-04T06:22:51.351Z,1002.53
2018-07-04T06:23:31.887Z,1002.53
2018-07-04T06:24:12.335Z,1002.59
2018-07-04T06:24:54.510Z,1002.58
2018-07-04T06:25:35.004Z,1002.56
2018-07-04T06:26:15.504Z,1002.53
2018-07-04T06:26:56.062Z,1002.57
2018-07-04T06:27:36.501Z,1002.48
2018-07-04T06:28:17.061Z,1002.5
2018-07-04T06:28:57.613Z,1002.51
2018-07-04T06:29:38.147Z,1002.48
2018-07-04T06:30:18.663Z,1002.52
2018-07-04T06:30:59.929Z,1002.48
2018-07-04T06:31:40.420Z,1002.47
2018-07-04T06:32:20.939Z,1002.53
2018-07-04T06:33:01.429Z,1002.49
2018-07-04T06:33:41.917Z,1002.49
2018-07-04T06:34:23.239Z,1002.51
2018-07-04T06:35:04.598Z,1002.49
2018-07-04T06:35:45.184Z,1002.49
2018-07-04T06:36:25.616Z,1002.44
2018-07-04T06:37:06.950Z,1002.51
2018-07-04T06:37:47.451Z,1002.49
2018-07-04T06:38:27.939Z,1002.5
2018-07-04T06:39:08.464Z,1002.52
2018-07-04T06:39:48.949Z,1002.53
2018-07-04T06:40:29.435Z,1002.54
2018-07-04T06:41:09.933Z,1002.54
2018-07-04T06:41:50.456Z,1002.51
2018-07-04T06:42:30.984Z,1002.49
2018-07-04T06:43:13.227Z,1002.49
2018-07-04T06:43:53.726Z,1002.52
2018-07-04T06:44:34.214Z,1002.55
2018-07-04T06:45:14.750Z,1002.48
2018-07-04T06:45:55.211Z,1002.5
2018-07-04T06:46:35.768Z,1002.48
2018-07-04T06:47:16.262Z,1002.45
2018-07-04T06:47:56.756Z,1002.44
2018-07-04T06:48:37.242Z,1002.47
2018-07-04T06:49:18.669Z,1002.46
2018-07-04T06:49:59.137Z,1002.45
2018-07-04T06:50:40.315Z,1002.43
2018-07-04T06:51:20.830Z,1002.45
2018-07-04T06:52:01.344Z,1002.5
2018-07-04T06:52:41.856Z,1002.47
2018-07-04T06:53:22.354Z,1002.47
2018-07-04T06:54:02.893Z,1002.49
2018-07-04T06:54:43.427Z,1002.51
2018-07-04T06:55:23.891Z,1002.48
2018-07-04T06:56:04.377Z,1002.54
2018-07-04T06:56:44.889Z,1002.49
2018-07-04T06:57:25.378Z,1002.5
2018-07-04T06:58:05.876Z,1002.51
2018-07-04T06:58:46.910Z,1002.46
2018-07-04T06:59:27.392Z,1002.48
2018-07-04T07:00:07.954Z,1002.43
2018-07-04T07:00:48.411Z,1002.48
2018-07-04T07:01:28.982Z,1002.47
2018-07-04T07:02:09.425Z,1002.48
2018-07-04T07:02:49.937Z,1002.47
2018-07-04T07:03:30.452Z,1002.46
2018-07-04T07:04:10.953Z,1002.46
2018-07-04T07:04:51.423Z,1002.46
2018-07-04T07:05:32.659Z,1002.45
2018-07-04T07:06:13.148Z,1002.48
2018-07-04T07:06:53.741Z,1002.5
2018-07-04T07:07:34.273Z,1002.5
2018-07-04T07:08:14.796Z,1002.49
2018-07-04T07:08:55.310Z,1002.51
2018-07-04T07:09:35.781Z,1002.52
2018-07-04T07:10:16.325Z,1002.49
2018-07-04T07:10:56.806Z,1002.5
2018-07-04T07:11:37.343Z,1002.47
2018-07-04T07:12:17.847Z,1002.47
2018-07-04T07:12:58.357Z,1002.43
2018-07-04T07:13:38.802Z,1002.41
2018-07-04T07:14:19.353Z,1002.46
2018-07-04T07:14:59.830Z,1002.43
2018-07-04T07:15:40.283Z,1002.47
2018-07-04T07:16:20.805Z,1002.45
2018-07-04T07:17:01.359Z,1002.43
2018-07-04T07:17:41.819Z,1002.41
2018-07-04T07:18:22.313Z,1002.42
2018-07-04T07:19:03.519Z,1002.45
2018-07-04T07:19:44.085Z,1002.43
2018-07-04T07:20:24.741Z,1002.45
2018-07-04T07:21:05.830Z,1002.44
2018-07-04T07:21:46.899Z,1002.41
2018-07-04T07:22:28.003Z,1002.44
2018-07-04T07:23:09.333Z,1002.4
2018-07-04T07:23:49.855Z,1002.41
2018-07-04T07:24:30.385Z,1002.4
2018-07-04T07:25:10.841Z,1002.42
2018-07-04T07:25:51.877Z,1002.43
2018-07-04T07:26:32.441Z,1002.42
2018-07-04T07:27:12.905Z,1002.41
2018-07-04T07:27:53.380Z,1002.41
2018-07-04T07:28:35.047Z,1002.41
2018-07-04T07:29:15.550Z,1002.43
2018-07-04T07:29:56.059Z,1002.4
2018-07-04T07:30:36.561Z,1002.42
2018-07-04T07:31:17.098Z,1002.37
2018-07-04T07:31:57.634Z,1002.43
2018-07-04T07:32:38.129Z,1002.39
2018-07-04T07:33:19.338Z,1002.4
2018-07-04T07:34:00.595Z,1002.42
2018-07-04T07:34:41.043Z,1002.33
2018-07-04T07:35:21.541Z,1002.37
2018-07-04T07:36:02.115Z,1002.33
2018-07-04T07:36:43.177Z,1002.36
2018-07-04T07:37:23.692Z,1002.35
2018-07-04T07:38:04.352Z,1002.33
2018-07-04T07:38:44.843Z,1002.31
2018-07-04T07:39:25.548Z,1002.33
2018-07-04T07:40:06.854Z,1002.31
2018-07-04T07:40:48.136Z,1002.34
2018-07-04T07:41:28.640Z,1002.28
2018-07-04T07:42:09.154Z,1002.31
2018-07-04T07:42:49.652Z,1002.3
2018-07-04T07:43:30.175Z,1002.27
2018-07-04T07:44:10.648Z,1002.28
2018-07-04T07:44:51.135Z,1002.28
2018-07-04T07:45:32.472Z,1002.27
2018-07-04T07:46:12.962Z,1002.28
2018-07-04T07:46:55.379Z,1002.26
2018-07-04T07:47:36.199Z,1002.23
2018-07-04T07:48:16.684Z,1002.28
2018-07-04T07:48:57.204Z,1002.27
2018-07-04T07:49:37.789Z,1002.28
2018-07-04T07:50:19.032Z,1002.25
2018-07-04T07:50:59.590Z,1002.27
2018-07-04T07:51:41.523Z,1002.27
2018-07-04T07:52:22.752Z,1002.29
2018-07-04T07:53:03.746Z,1002.28
2018-07-04T07:53:44.241Z,1002.29
2018-07-04T07:54:24.884Z,1002.29
2018-07-04T07:55:05.888Z,1002.25
2018-07-04T07:55:48.197Z,1002.3
2018-07-04T07:56:28.691Z,1002.3
2018-07-04T07:57:09.216Z,1002.3
2018-07-04T07:57:49.669Z,1002.32
2018-07-04T07:58:30.176Z,1002.3
2018-07-04T07:59:10.690Z,1002.31
2018-07-04T07:59:51.190Z,1002.36
2018-07-04T08:00:31.891Z,1002.38
2018-07-04T08:01:12.456Z,1002.38
2018-07-04T08:01:52.993Z,1002.39
2018-07-04T08:02:33.503Z,1002.47
2018-07-04T08:03:13.975Z,1002.39
2018-07-04T08:03:54.503Z,1002.43
2018-07-04T08:04:35.012Z,1002.4
2018-07-04T08:05:16.266Z,1002.45
2018-07-04T08:05:56.827Z,1002.49
2018-07-04T08:06:37.273Z,1002.47
2018-07-04T08:07:17.790Z,1002.5
2018-07-04T08:07:58.282Z,1002.52
2018-07-04T08:08:38.793Z,1002.54
2018-07-04T08:09:19.272Z,1002.53
2018-07-04T08:09:59.820Z,1002.53
2018-07-04T08:10:40.277Z,1002.49
2018-07-04T08:11:20.818Z,1002.55
2018-07-04T08:12:01.860Z,1002.5
2018-07-04T08:12:43.206Z,1002.5
2018-07-04T08:13:23.693Z,1002.48
2018-07-04T08:14:04.184Z,1002.48
2018-07-04T08:14:45.530Z,1002.54
2018-07-04T08:15:26.036Z,1002.52